createdAt,value
2019-03-06T00:00:54.000Z,78.3
2019-03-06T00:02:07.991Z,78.8
2019-03-06T00:03:19.000Z,78.1
2019-03-06T00:04:31.000Z,78.3
2019-03-06T00:05:43.000Z,79.1
2019-03-06T00:06:56.000Z,78.8
2019-03-06T00:08:07.000Z,78.5
2019-03-06T00:09:20.000Z,79.2
2019-03-06T00:10:32.000Z,79.8
2019-03-06T00:11:44.000Z,79.4
2019-03-06T00:12:56.000Z,79.3
2019-03-06T00:14:08.000Z,79.5
2019-03-06T00:15:21.115Z,79.5
2019-03-06T00:16:33.000Z,79.9
2019-03-06T00:17:45.000Z,79.9
2019-03-06T00:18:58.726Z,79.9
2019-03-06T00:20:10.000Z,80.1
2019-03-06T00:21:22.000Z,79.6
2019-03-06T00:22:35.000Z,79.3
2019-03-06T00:23:47.507Z,79.8
2019-03-06T00:24:58.000Z,80.3
2019-03-06T00:26:10.000Z,79.5
2019-03-06T00:27:23.000Z,80.2
2019-03-06T00:28:36.000Z,80.3
2019-03-06T00:29:47.000Z,79.8
2019-03-06T00:30:59.000Z,79.6
2019-03-06T00:32:11.000Z,80
2019-03-06T00:33:24.000Z,79.7
2019-03-06T00:34:36.000Z,79.8
2019-03-06T00:35:49.000Z,79.9
2019-03-06T00:37:00.000Z,79.2
2019-03-06T00:38:12.000Z,79.6
2019-03-06T00:39:26.056Z,80
2019-03-06T00:40:38.252Z,79.7
2019-03-06T00:41:49.000Z,80.1
2019-03-06T00:43:02.000Z,79.4
2019-03-06T00:44:13.000Z,79.5
2019-03-06T00:45:27.000Z,78.4
2019-03-06T00:46:39.000Z,78.8
2019-03-06T00:47:51.421Z,79.1
2019-03-06T00:49:02.000Z,79.4
2019-03-06T00:50:14.000Z,80
2019-03-06T00:51:28.008Z,79.8
2019-03-06T00:52:39.000Z,79.8
2019-03-06T00:53:51.000Z,79.7
2019-03-06T00:55:04.600Z,79.8
2019-03-06T00:56:15.000Z,79.4
2019-03-06T00:57:27.000Z,79.9
2019-03-06T00:58:40.000Z,78.9
2019-03-06T00:59:52.000Z,78.2
2019-03-06T01:01:05.582Z,78.7
2019-03-06T01:02:17.767Z,78.3
2019-03-06T01:03:28.000Z,78.3
2019-03-06T01:04:41.000Z,78.7
2019-03-06T01:05:53.000Z,78.1
2019-03-06T01:07:05.000Z,78.4
2019-03-06T01:08:17.000Z,79.1
2019-03-06T01:09:29.000Z,78.8
2019-03-06T01:10:42.000Z,78.8
2019-03-06T01:11:55.652Z,78.8
2019-03-06T01:13:07.524Z,79
2019-03-06T01:14:18.000Z,79.3
2019-03-06T01:15:31.937Z,79.2
2019-03-06T01:16:44.113Z,78.8
2019-03-06T01:17:55.000Z,78.8
2019-03-06T01:19:07.000Z,79
2019-03-06T01:20:20.000Z,78.6
2019-03-06T01:21:31.000Z,79.2
2019-03-06T01:22:44.000Z,78.6
2019-03-06T01:23:56.000Z,78.8
2019-03-06T01:25:09.048Z,78.8
2019-03-06T01:26:20.000Z,79
2019-03-06T01:27:32.000Z,79.1
2019-03-06T01:28:45.000Z,79.3
2019-03-06T01:29:58.265Z,78.9
2019-03-06T01:31:10.466Z,79.1
2019-03-06T01:32:22.658Z,80
2019-03-06T01:33:33.000Z,80.1
2019-03-06T01:34:47.054Z,80
2019-03-06T01:35:58.000Z,80.2
2019-03-06T01:37:11.440Z,80.9
2019-03-06T01:38:22.000Z,80.8
2019-03-06T01:39:34.000Z,80.8
2019-03-06T01:40:47.000Z,80.9
2019-03-06T01:41:59.000Z,80.7
2019-03-06T01:43:11.000Z,81
2019-03-06T01:44:23.000Z,80.7
2019-03-06T01:46:47.000Z,80.5
2019-03-06T01:48:00.000Z,80.3
2019-03-06T01:49:12.000Z,80.2
2019-03-06T01:50:24.000Z,80
2019-03-06T01:51:36.000Z,79.5
2019-03-06T01:52:48.000Z,80
2019-03-06T01:54:01.000Z,79.8
2019-03-06T01:55:13.000Z,80.2
2019-03-06T01:56:26.000Z,80
2019-03-06T01:57:37.000Z,80.4
2019-03-06T01:58:50.000Z,80
2019-03-06T02:00:02.000Z,79.5
2019-03-06T02:01:15.350Z,79.7
2019-03-06T02:02:26.000Z,80.1
2019-03-06T02:03:38.000Z,80
2019-03-06T02:04:50.000Z,80.5
2019-03-06T02:06:03.000Z,80
2019-03-06T02:07:16.329Z,80.5
2019-03-06T02:08:28.000Z,80.8
2019-03-06T02:10:52.929Z,80.8
2019-03-06T02:12:05.122Z,80.1
2019-03-06T02:13:17.310Z,80.7
2019-03-06T02:14:29.510Z,80.6
2019-03-06T02:16:53.903Z,80.6
2019-03-06T02:18:06.091Z,80.7
2019-03-06T02:19:18.280Z,81.3
2019-03-06T02:20:30.478Z,80.8
2019-03-06T02:22:54.882Z,81
2019-03-06T02:24:07.069Z,80.9
2019-03-06T02:25:19.254Z,80.9
2019-03-06T02:26:31.448Z,80.5
2019-03-06T02:27:43.650Z,80.7
2019-03-06T02:28:55.841Z,80.3
2019-03-06T02:30:08.031Z,80.4
2019-03-06T02:31:20.227Z,80.8
2019-03-06T02:33:44.618Z,80.8
2019-03-06T02:34:56.808Z,80.7
2019-03-06T02:36:08.999Z,81.2
2019-03-06T02:37:21.202Z,81.1
2019-03-06T02:38:33.396Z,81.1
2019-03-06T02:39:45.590Z,81.3
2019-03-06T02:40:57.077Z,81.4
2019-03-06T02:42:09.990Z,81.1
2019-03-06T02:43:22.165Z,81.1
2019-03-06T02:44:34.035Z,81.3
2019-03-06T02:45:46.554Z,81.5
2019-03-06T02:46:57.000Z,81.7
2019-03-06T02:48:09.000Z,81.3
2019-03-06T02:49:22.000Z,81
2019-03-06T02:50:34.000Z,82.1
2019-03-06T02:51:46.000Z,81.9
2019-03-06T02:52:59.000Z,81.8
2019-03-06T02:54:10.000Z,81.8
2019-03-06T02:55:23.000Z,82.4
2019-03-06T02:56:36.303Z,82
2019-03-06T02:57:48.000Z,82.6
2019-03-06T02:58:59.000Z,82.3
2019-03-06T03:00:12.000Z,81.9
2019-03-06T03:01:24.000Z,81.8
2019-03-06T03:02:36.000Z,82.7
2019-03-06T03:03:48.000Z,82.8
2019-03-06T03:05:00.000Z,83
2019-03-06T03:06:12.000Z,83.5
2019-03-06T03:07:25.000Z,82.9
2019-03-06T03:08:37.000Z,83.8
2019-03-06T03:11:01.000Z,84.1
2019-03-06T03:12:14.819Z,83.2
2019-03-06T03:13:25.000Z,83.5
2019-03-06T03:14:38.000Z,83.1
2019-03-06T03:15:50.000Z,83.2
2019-03-06T03:17:02.000Z,83
2019-03-06T03:18:14.000Z,83.2
2019-03-06T03:19:26.000Z,82.9
2019-03-06T03:20:39.000Z,82.6
2019-03-06T03:21:52.000Z,82.9
2019-03-06T03:23:03.000Z,83.1
2019-03-06T03:24:15.000Z,83.9
2019-03-06T03:25:27.000Z,84.2
2019-03-06T03:26:41.146Z,84
2019-03-06T03:27:52.000Z,84
2019-03-06T03:29:04.000Z,84
2019-03-06T03:30:16.000Z,83.8
2019-03-06T03:31:28.000Z,83.6
2019-03-06T03:32:41.000Z,84
2019-03-06T03:33:54.312Z,83.5
2019-03-06T03:35:05.000Z,83.5
2019-03-06T03:36:17.000Z,83.2
2019-03-06T03:37:29.000Z,83.8
2019-03-06T03:38:42.000Z,84.3
2019-03-06T03:39:54.000Z,84
2019-03-06T03:41:07.477Z,84.4
2019-03-06T03:42:18.000Z,84.5
2019-03-06T03:43:30.000Z,84.3
2019-03-06T03:44:43.000Z,83.7
2019-03-06T03:45:56.025Z,84.1
2019-03-06T03:47:07.000Z,83.8
2019-03-06T03:48:20.645Z,82.6
2019-03-06T03:49:31.000Z,83.1
2019-03-06T03:50:44.000Z,83.7
2019-03-06T03:51:57.218Z,83.9
2019-03-06T03:53:08.000Z,83.4
2019-03-06T03:54:20.000Z,84.4
2019-03-06T03:55:33.807Z,84.1
2019-03-06T03:56:44.000Z,83.8
2019-03-06T03:57:57.000Z,84.6
2019-03-06T03:59:09.000Z,84.3
2019-03-06T04:00:22.582Z,84.3
2019-03-06T04:01:33.000Z,84.5
2019-03-06T04:03:58.000Z,84.6
2019-03-06T04:05:10.000Z,84.6
2019-03-06T04:06:22.000Z,84.7
2019-03-06T04:07:35.748Z,84.3
2019-03-06T04:08:46.000Z,85
2019-03-06T04:09:59.000Z,84.8
2019-03-06T04:11:11.000Z,84.3
2019-03-06T04:12:23.000Z,84.4
2019-03-06T04:13:35.000Z,85
2019-03-06T04:14:47.000Z,85
2019-03-06T04:16:01.098Z,85.2
2019-03-06T04:17:13.296Z,84.7
2019-03-06T04:18:24.000Z,85.5
2019-03-06T04:19:36.000Z,85.1
2019-03-06T04:20:48.000Z,84.7
2019-03-06T04:22:01.000Z,84.5
2019-03-06T04:23:13.000Z,84.5
2019-03-06T04:24:25.000Z,84.2
2019-03-06T04:25:37.000Z,84.4
2019-03-06T04:26:49.000Z,84.2
2019-03-06T04:28:02.000Z,83.6
2019-03-06T04:29:14.000Z,83.8
2019-03-06T04:30:26.000Z,83.8
2019-03-06T04:31:38.000Z,83.9
2019-03-06T04:32:50.000Z,84.5
2019-03-06T04:34:02.000Z,84.1
2019-03-06T04:35:16.000Z,84.2
2019-03-06T04:36:28.400Z,83.1
2019-03-06T04:37:39.000Z,84.2
2019-03-06T04:38:51.000Z,84.4
2019-03-06T04:40:03.000Z,84.3
2019-03-06T04:41:16.000Z,84.2
2019-03-06T04:42:28.000Z,84
2019-03-06T04:43:40.000Z,83.4
2019-03-06T04:44:53.075Z,83.8
2019-03-06T04:46:05.094Z,84.5
2019-03-06T04:47:17.000Z,85.8
2019-03-06T04:48:29.000Z,85.2
2019-03-06T04:50:53.000Z,84.9
2019-03-06T04:52:06.928Z,85.5
2019-03-06T04:53:19.113Z,85.7
2019-03-06T04:54:30.000Z,85.7
2019-03-06T04:55:42.000Z,86.2
2019-03-06T04:56:55.697Z,85.5
2019-03-06T04:58:06.000Z,85.8
2019-03-06T04:59:19.000Z,84.9
2019-03-06T05:00:31.000Z,83.8
2019-03-06T05:01:43.000Z,83.9
2019-03-06T05:02:55.000Z,84.3
2019-03-06T05:04:08.860Z,83.4
2019-03-06T05:05:20.000Z,84.6
2019-03-06T05:06:32.000Z,84.7
2019-03-06T05:08:57.000Z,85
2019-03-06T05:10:08.000Z,85.6
2019-03-06T05:11:21.000Z,86.2
2019-03-06T05:12:33.000Z,85.3
2019-03-06T05:13:46.413Z,86.2
2019-03-06T05:14:57.000Z,85.7
2019-03-06T05:16:09.000Z,86.2
2019-03-06T05:17:21.000Z,85.8
2019-03-06T05:18:35.000Z,85.5
2019-03-06T05:19:47.000Z,85.5
2019-03-06T05:20:59.000Z,83.9
2019-03-06T05:22:10.000Z,84.2
2019-03-06T05:23:22.000Z,84.4
2019-03-06T05:24:35.000Z,84.5
2019-03-06T05:25:48.352Z,84
2019-03-06T05:27:00.000Z,84.4
2019-03-06T05:28:11.000Z,84.4
2019-03-06T05:29:24.936Z,84.6
2019-03-06T05:30:36.000Z,84.3
2019-03-06T05:31:48.000Z,84.3
2019-03-06T05:33:00.000Z,83.9
2019-03-06T05:34:13.000Z,84
2019-03-06T05:35:24.000Z,84.2
2019-03-06T05:36:37.000Z,84.2
2019-03-06T05:37:50.000Z,84.5
2019-03-06T05:39:02.495Z,84.9
2019-03-06T05:40:13.000Z,85.1
2019-03-06T05:41:25.000Z,85
2019-03-06T05:42:38.000Z,84.5
2019-03-06T05:43:51.266Z,84.2
2019-03-06T05:45:02.000Z,84.5
2019-03-06T05:46:14.000Z,84.9
2019-03-06T05:47:26.000Z,84.3
2019-03-06T05:48:39.000Z,84.9
2019-03-06T05:49:51.000Z,84.6
2019-03-06T05:51:04.428Z,84
2019-03-06T05:52:16.626Z,83.8
2019-03-06T05:53:27.000Z,83.6
2019-03-06T05:54:39.000Z,83.8
2019-03-06T05:55:52.000Z,83.3
2019-03-06T05:57:05.394Z,83.8
2019-03-06T05:58:16.000Z,84.4
2019-03-06T05:59:29.000Z,84.2
2019-03-06T06:00:40.000Z,83.8
2019-03-06T06:01:54.179Z,84.2
2019-03-06T06:03:05.000Z,84.2
2019-03-06T06:04:17.000Z,84.6
2019-03-06T06:05:30.000Z,84.9
2019-03-06T06:10:18.000Z,83.8
2019-03-06T06:11:30.000Z,84.2
2019-03-06T06:12:42.000Z,84.3
2019-03-06T06:13:56.000Z,84.5
2019-03-06T06:15:07.000Z,84
2019-03-06T06:16:19.000Z,84.7
2019-03-06T06:17:31.000Z,84.7
2019-03-06T06:18:43.000Z,84.8
2019-03-06T06:19:56.000Z,85
2019-03-06T06:21:09.284Z,84.3
2019-03-06T06:22:21.000Z,84.7
2019-03-06T06:23:33.000Z,84.2
2019-03-06T06:24:44.000Z,84.5
2019-03-06T06:25:57.000Z,84.4
2019-03-06T06:27:10.251Z,84.5
2019-03-06T06:28:22.443Z,84.8
2019-03-06T06:29:33.000Z,84.3
2019-03-06T06:30:45.000Z,84.6
2019-03-06T06:31:58.000Z,84.7
2019-03-06T06:33:10.000Z,84.9
2019-03-06T06:34:22.000Z,84.5
2019-03-06T06:35:34.000Z,84.4
2019-03-06T06:36:46.000Z,84.1
2019-03-06T06:37:59.000Z,83.8
2019-03-06T06:39:11.000Z,84
2019-03-06T06:40:23.000Z,84.2
2019-03-06T06:41:35.000Z,84.2
2019-03-06T06:42:47.000Z,84.1
2019-03-06T06:43:59.000Z,84
2019-03-06T06:45:13.000Z,83.9
2019-03-06T06:46:24.000Z,83.7
2019-03-06T06:47:36.000Z,83.6
2019-03-06T06:48:49.745Z,83.6
2019-03-06T06:50:01.000Z,83.7
2019-03-06T06:51:13.000Z,83.7
2019-03-06T06:52:26.326Z,83.6
2019-03-06T06:53:38.510Z,83.3
2019-03-06T06:54:49.000Z,83.4
2019-03-06T06:56:02.909Z,83.9
2019-03-06T06:57:15.009Z,84.1
2019-03-06T06:58:26.000Z,83.6
2019-03-06T06:59:38.000Z,83.3
2019-03-06T07:00:51.678Z,83.3
2019-03-06T07:02:02.000Z,83.4
2019-03-06T07:03:15.000Z,83.2
2019-03-06T07:04:28.265Z,82.9
2019-03-06T07:05:39.000Z,83
2019-03-06T07:06:51.000Z,82.8
2019-03-06T07:08:03.000Z,82.3
2019-03-06T07:09:17.037Z,82.1
2019-03-06T07:10:28.000Z,82.3
2019-03-06T07:11:41.000Z,82.1
2019-03-06T07:12:52.000Z,81.9
2019-03-06T07:14:05.000Z,81.7
2019-03-06T07:15:16.000Z,81.6
2019-03-06T07:16:29.000Z,81.7
2019-03-06T07:17:41.000Z,82
2019-03-06T07:18:53.000Z,82.3
2019-03-06T07:20:06.788Z,82.3
2019-03-06T07:21:18.000Z,82.6
2019-03-06T07:22:31.000Z,82.5
2019-03-06T07:23:43.367Z,82.3
2019-03-06T07:24:54.000Z,82.5
2019-03-06T07:26:07.764Z,82
2019-03-06T07:27:18.000Z,81.8
2019-03-06T07:28:31.000Z,81.9
2019-03-06T07:29:43.000Z,82
2019-03-06T07:30:55.000Z,81.5
2019-03-06T07:32:07.000Z,81.6
2019-03-06T07:33:19.000Z,81.7
2019-03-06T07:34:32.000Z,81.3
2019-03-06T07:35:44.000Z,81.2
2019-03-06T07:36:57.000Z,81.1
2019-03-06T07:38:09.000Z,81.3
2019-03-06T07:39:21.892Z,81.5
2019-03-06T07:40:33.000Z,81.2
2019-03-06T07:41:46.000Z,81.3
2019-03-06T07:42:58.000Z,80.8
2019-03-06T07:44:09.000Z,81.1
2019-03-06T07:45:21.000Z,81.3
2019-03-06T07:46:34.000Z,81.1
2019-03-06T07:47:47.244Z,80.4
2019-03-06T07:48:58.000Z,80.2
2019-03-06T07:50:11.628Z,80.6
2019-03-06T07:51:23.837Z,80.5
2019-03-06T07:52:34.000Z,80.3
2019-03-06T07:53:47.000Z,80.6
2019-03-06T07:54:59.000Z,80.3
2019-03-06T07:56:11.000Z,80.1
2019-03-06T07:57:24.000Z,80.2
2019-03-06T07:58:36.988Z,80.2
2019-03-06T07:59:49.000Z,80
2019-03-06T08:01:00.000Z,79.9
2019-03-06T08:02:13.000Z,80.1
2019-03-06T08:03:24.000Z,80.4
2019-03-06T08:04:37.000Z,79.7
2019-03-06T08:05:49.000Z,79.3
2019-03-06T08:07:01.000Z,79.5
2019-03-06T08:08:14.000Z,78.5
2019-03-06T08:09:25.000Z,79
2019-03-06T08:10:38.930Z,79
2019-03-06T08:11:51.126Z,79.3
2019-03-06T08:13:02.000Z,79.1
2019-03-06T08:14:14.000Z,78.7
2019-03-06T08:15:27.709Z,78.3
2019-03-06T08:16:39.000Z,77.9
2019-03-06T08:17:51.000Z,77.1
2019-03-06T08:19:04.289Z,77.4
2019-03-06T08:20:16.000Z,77.9
2019-03-06T08:21:28.000Z,78.3
2019-03-06T08:22:39.000Z,78.3
2019-03-06T08:23:53.000Z,78.4
2019-03-06T08:25:04.000Z,78.5
2019-03-06T08:26:17.449Z,78.3
2019-03-06T08:27:29.000Z,79
2019-03-06T08:28:40.000Z,78.2
2019-03-06T08:29:53.000Z,78.1
2019-03-06T08:31:05.000Z,78.7
2019-03-06T08:32:17.000Z,77.1
2019-03-06T08:33:29.000Z,76
2019-03-06T08:34:41.000Z,77
2019-03-06T08:35:53.000Z,79
2019-03-06T08:37:07.198Z,78.9
2019-03-06T08:38:21.000Z,77.2
2019-03-06T08:39:30.000Z,76.8
2019-03-06T08:40:42.000Z,76.4
2019-03-06T08:41:54.000Z,75.8
2019-03-06T08:43:07.000Z,77
2019-03-06T08:44:19.000Z,74.8
2019-03-06T08:45:31.000Z,75.2
2019-03-06T08:46:44.753Z,75
2019-03-06T08:47:56.941Z,75.1
2019-03-06T08:49:08.000Z,73.9
2019-03-06T08:50:20.000Z,74.8
2019-03-06T08:51:32.000Z,73.8
2019-03-06T08:52:45.000Z,73.9
2019-03-06T08:53:56.000Z,74.3
2019-03-06T08:55:09.000Z,74.2
2019-03-06T08:56:22.000Z,74.3
2019-03-06T08:57:33.000Z,75.4
2019-03-06T08:58:46.687Z,74.4
2019-03-06T08:59:57.000Z,74.5
2019-03-06T09:01:10.000Z,75.1
2019-03-06T09:02:23.000Z,74.9
2019-03-06T09:03:34.000Z,74.3
2019-03-06T09:04:47.000Z,73.7
2019-03-06T09:05:59.000Z,74.7
2019-03-06T09:07:11.000Z,74.9
2019-03-06T09:08:23.000Z,76.4
2019-03-06T09:09:37.000Z,76.3
2019-03-06T09:10:47.000Z,76
2019-03-06T09:12:00.818Z,76.7
2019-03-06T09:13:11.000Z,74.1
2019-03-06T09:14:25.000Z,73.5
2019-03-06T09:15:36.000Z,73.9
2019-03-06T09:16:49.000Z,74.2
2019-03-06T09:18:00.000Z,75.2
2019-03-06T09:19:12.000Z,74.3
2019-03-06T09:20:25.000Z,74.7
2019-03-06T09:21:38.000Z,74
2019-03-06T09:22:49.000Z,73.4
2019-03-06T09:24:01.000Z,72.7
2019-03-06T09:25:13.000Z,72.6
2019-03-06T09:26:27.000Z,71.6
2019-03-06T09:27:39.345Z,72.2
2019-03-06T09:28:50.000Z,70.2
2019-03-06T09:30:02.000Z,70.7
2019-03-06T09:31:14.000Z,68.7
2019-03-06T09:32:27.000Z,71.8
2019-03-06T09:33:39.000Z,72.3
2019-03-06T09:34:52.000Z,71.8
2019-03-06T09:36:03.000Z,71
2019-03-06T09:37:16.000Z,71.3
2019-03-06T09:38:28.000Z,70.9
2019-03-06T09:39:41.027Z,70.9
2019-03-06T09:40:53.000Z,70.7
2019-03-06T09:42:05.000Z,68.7
2019-03-06T09:43:16.000Z,69.9
2019-03-06T09:44:29.000Z,70.5
2019-03-06T09:45:41.000Z,70
2019-03-06T09:46:53.000Z,69.9
2019-03-06T09:48:05.000Z,70
2019-03-06T09:49:18.000Z,68.7
2019-03-06T09:50:29.000Z,67.8
2019-03-06T09:51:42.000Z,69.4
2019-03-06T09:52:55.000Z,70.2
2019-03-06T09:54:06.000Z,68.5
2019-03-06T09:55:18.000Z,69.6
2019-03-06T09:56:30.000Z,69.2
2019-03-06T09:57:44.000Z,68.5
2019-03-06T09:58:55.000Z,69
2019-03-06T10:00:07.000Z,68.3
2019-03-06T10:01:20.795Z,68.7
2019-03-06T10:02:32.963Z,65.9
2019-03-06T10:03:45.000Z,67.1
2019-03-06T10:04:56.000Z,66.5
2019-03-06T10:06:09.000Z,64.8
2019-03-06T10:07:21.000Z,65.2
2019-03-06T10:08:32.000Z,65.5
2019-03-06T10:09:45.000Z,66.2
2019-03-06T10:10:57.000Z,66.2
2019-03-06T10:12:10.000Z,65.9
2019-03-06T10:13:21.000Z,66.9
2019-03-06T10:14:34.896Z,66.3
2019-03-06T10:15:46.000Z,68.4
2019-03-06T10:16:58.000Z,68.3
2019-03-06T10:18:11.490Z,65.1
2019-03-06T10:19:23.000Z,64.4
2019-03-06T10:20:34.000Z,65.2
2019-03-06T10:21:47.000Z,64.8
2019-03-06T10:23:00.000Z,66
2019-03-06T10:24:12.000Z,64.1
2019-03-06T10:25:24.000Z,63.8
2019-03-06T10:26:35.000Z,63.7
2019-03-06T10:27:48.000Z,63.6
2019-03-06T10:29:00.000Z,62.8
2019-03-06T10:30:12.000Z,62.9
2019-03-06T10:31:25.614Z,62.6
2019-03-06T10:32:37.000Z,62.5
2019-03-06T10:33:49.000Z,62
2019-03-06T10:35:01.000Z,65.6
2019-03-06T10:36:14.384Z,65.8
2019-03-06T10:37:26.058Z,64.7
2019-03-06T10:38:38.000Z,64.8
2019-03-06T10:39:49.000Z,62.8
2019-03-06T10:41:02.000Z,60.8
2019-03-06T10:42:15.355Z,61.8
2019-03-06T10:43:26.000Z,61.4
2019-03-06T10:44:39.739Z,62
2019-03-06T10:45:51.000Z,60.7
2019-03-06T10:47:03.000Z,60.2
2019-03-06T10:48:15.000Z,61.9
2019-03-06T10:49:27.000Z,61
2019-03-06T10:50:39.000Z,60.5
2019-03-06T10:51:51.000Z,62.7
2019-03-06T10:53:04.000Z,60.1
2019-03-06T10:54:16.000Z,59.2
2019-03-06T10:55:29.000Z,57.2
2019-03-06T10:56:41.000Z,57.1
2019-03-06T10:57:53.983Z,58.1
2019-03-06T10:59:05.000Z,56.6
2019-03-06T11:00:17.000Z,56.3
2019-03-06T11:01:29.000Z,56
2019-03-06T11:02:42.763Z,58.5
2019-03-06T11:03:53.000Z,58.9
2019-03-06T11:05:06.000Z,57.8
2019-03-06T11:06:18.000Z,56.6
2019-03-06T11:07:30.000Z,58.9
2019-03-06T11:08:42.000Z,56.4
2019-03-06T11:09:55.923Z,58
2019-03-06T11:11:07.000Z,57.1
2019-03-06T11:12:19.000Z,55.8
2019-03-06T11:13:32.513Z,57.9
2019-03-06T11:14:43.000Z,57.5
2019-03-06T11:15:55.000Z,57.1
2019-03-06T11:17:08.000Z,58.7
2019-03-06T11:18:20.000Z,58.7
2019-03-06T11:19:32.000Z,56.4
2019-03-06T11:20:44.000Z,55.1
2019-03-06T11:21:56.000Z,58.6
2019-03-06T11:23:09.000Z,55.6
2019-03-06T11:24:21.000Z,53.9
2019-03-06T11:25:34.448Z,54.1
2019-03-06T11:26:46.000Z,51.8
2019-03-06T11:27:58.082Z,51.8
2019-03-06T11:29:11.023Z,52.2
2019-03-06T11:30:22.000Z,53
2019-03-06T11:31:35.416Z,52.8
2019-03-06T11:32:47.609Z,53.9
2019-03-06T11:33:59.000Z,55.8
2019-03-06T11:35:10.000Z,53.6
2019-03-06T11:36:23.000Z,53.4
2019-03-06T11:37:35.000Z,54.5
2019-03-06T11:38:47.000Z,54.9
2019-03-06T11:39:59.000Z,55.8
2019-03-06T11:41:11.000Z,53.2
2019-03-06T11:42:25.000Z,53
2019-03-06T11:43:36.000Z,54.1
2019-03-06T11:44:48.000Z,54
2019-03-06T11:46:01.000Z,54.8
2019-03-06T11:47:12.000Z,54
2019-03-06T11:48:25.000Z,53.2
2019-03-06T11:49:38.319Z,53.3
2019-03-06T11:50:49.000Z,52
2019-03-06T11:52:01.000Z,51.5
2019-03-06T11:53:14.901Z,51.2
2019-03-06T11:54:26.000Z,53.5
2019-03-06T11:55:38.000Z,53.4
2019-03-06T11:56:51.048Z,53
2019-03-06T11:58:03.067Z,54.7
2019-03-06T11:59:15.868Z,51.2
2019-03-06T12:00:27.000Z,53
2019-03-06T12:01:39.000Z,54.4
2019-03-06T12:02:51.000Z,55.6
2019-03-06T12:04:03.000Z,53.5
2019-03-06T12:05:16.000Z,53.7
2019-03-06T12:06:28.000Z,52
2019-03-06T12:07:40.000Z,53.2
2019-03-06T12:08:53.430Z,52.1
2019-03-06T12:10:04.000Z,50.9
2019-03-06T12:11:17.825Z,52
2019-03-06T12:12:29.000Z,50
2019-03-06T12:13:41.000Z,51.5
2019-03-06T12:14:53.000Z,52
2019-03-06T12:16:05.000Z,51
2019-03-06T12:17:17.000Z,50.2
2019-03-06T12:18:29.000Z,49.9
2019-03-06T12:19:42.000Z,52.5
2019-03-06T12:20:55.000Z,50.4
2019-03-06T12:22:07.000Z,50.6
2019-03-06T12:23:18.000Z,49.4
2019-03-06T12:24:30.000Z,50.7
2019-03-06T12:25:43.000Z,50.1
2019-03-06T12:26:55.000Z,51.8
2019-03-06T12:28:08.000Z,50.9
2019-03-06T12:29:19.000Z,50.8
2019-03-06T12:30:32.000Z,51.9
2019-03-06T12:31:44.000Z,53.6
2019-03-06T12:32:57.329Z,51.4
2019-03-06T12:34:09.000Z,54.6
2019-03-06T12:35:21.731Z,52.6
2019-03-06T12:36:33.000Z,52.2
2019-03-06T12:37:45.000Z,51.5
2019-03-06T12:38:58.317Z,51.8
2019-03-06T12:40:09.000Z,52.4
2019-03-06T12:41:22.000Z,51.1
2019-03-06T12:42:33.000Z,51
2019-03-06T12:44:58.000Z,52.7
2019-03-06T12:46:10.000Z,50.2
2019-03-06T12:47:23.000Z,51.4
2019-03-06T12:48:34.000Z,50
2019-03-06T12:49:48.065Z,50
2019-03-06T12:51:00.000Z,50.8
2019-03-06T12:52:11.000Z,49.3
2019-03-06T12:53:24.000Z,51.3
2019-03-06T12:54:35.000Z,49.6
2019-03-06T12:55:49.035Z,49.4
2019-03-06T12:57:01.233Z,49.2
2019-03-06T12:58:12.000Z,49.1
2019-03-06T12:59:24.000Z,49.9
2019-03-06T13:00:36.000Z,50.7
2019-03-06T13:01:50.016Z,49.2
2019-03-06T13:03:01.000Z,50.1
2019-03-06T13:04:13.000Z,49.8
2019-03-06T13:05:25.000Z,50.3
2019-03-06T13:06:38.796Z,49.7
2019-03-06T13:07:49.000Z,50.5
2019-03-06T13:09:02.000Z,50.5
2019-03-06T13:10:15.000Z,49.6
2019-03-06T13:11:27.000Z,50.7
2019-03-06T13:12:38.000Z,50.7
2019-03-06T13:13:50.000Z,50
2019-03-06T13:15:03.000Z,49.4
2019-03-06T13:16:16.356Z,50.2
2019-03-06T13:18:39.000Z,50.5
2019-03-06T13:19:51.000Z,50.2
2019-03-06T13:21:04.000Z,50.2
2019-03-06T13:22:17.000Z,49.8
2019-03-06T13:23:29.000Z,48.6
2019-03-06T13:24:40.000Z,49
2019-03-06T13:25:52.000Z,48.1
2019-03-06T13:27:05.000Z,47.7
2019-03-06T13:28:18.000Z,48.7
2019-03-06T13:29:29.000Z,48.3
2019-03-06T13:30:42.000Z,47.9
2019-03-06T13:31:53.000Z,47.4
2019-03-06T13:33:06.000Z,48.1
2019-03-06T13:34:19.000Z,47.6
2019-03-06T13:35:31.000Z,48.1
2019-03-06T13:36:42.000Z,49
2019-03-06T13:37:55.000Z,49.7
2019-03-06T13:39:08.073Z,49.3
2019-03-06T13:40:19.000Z,49
2019-03-06T13:41:32.458Z,49.2
2019-03-06T13:42:43.000Z,49.7
2019-03-06T13:43:56.850Z,49.3
2019-03-06T13:45:09.044Z,50.1
2019-03-06T13:46:20.000Z,51
2019-03-06T13:47:32.000Z,50.1
2019-03-06T13:48:44.000Z,49.9
2019-03-06T13:49:57.000Z,50.5
2019-03-06T13:51:10.016Z,51.2
2019-03-06T13:52:22.209Z,49.9
2019-03-06T13:53:33.000Z,49.5
2019-03-06T13:54:46.611Z,49.5
2019-03-06T13:55:58.000Z,50.2
2019-03-06T13:57:09.000Z,49.6
2019-03-06T13:58:22.000Z,50.7
2019-03-06T13:59:34.000Z,50.5
2019-03-06T14:00:46.000Z,50.5
2019-03-06T14:01:58.000Z,50.9
2019-03-06T14:03:11.097Z,51
2019-03-06T14:04:23.000Z,50.8
2019-03-06T14:05:35.000Z,50.7
2019-03-06T14:06:47.000Z,51
2019-03-06T14:07:59.000Z,51.1
2019-03-06T14:09:11.000Z,51.1
2019-03-06T14:10:24.000Z,50.6
2019-03-06T14:11:36.000Z,50.5
2019-03-06T14:12:48.000Z,50.6
2019-03-06T14:14:00.000Z,51.3
2019-03-06T14:15:13.914Z,51.9
2019-03-06T14:16:26.000Z,51.2
2019-03-06T14:17:37.000Z,51.1
2019-03-06T14:18:49.000Z,51.2
2019-03-06T14:20:01.000Z,50.7
2019-03-06T14:21:14.897Z,51.7
2019-03-06T14:22:26.000Z,51.9
2019-03-06T14:23:39.000Z,51.4
2019-03-06T14:24:50.000Z,52.2
2019-03-06T14:26:03.678Z,52.5
2019-03-06T14:27:14.000Z,51.7
2019-03-06T14:28:27.000Z,51.8
2019-03-06T14:29:39.000Z,51.9
2019-03-06T14:30:52.457Z,51.6
2019-03-06T14:32:03.000Z,51.2
2019-03-06T14:33:16.000Z,51.3
2019-03-06T14:34:28.000Z,51.1
2019-03-06T14:35:40.000Z,51.2
2019-03-06T14:36:53.044Z,51.2
2019-03-06T14:38:05.000Z,51
2019-03-06T14:39:17.822Z,51.7
2019-03-06T14:40:28.000Z,52.1
2019-03-06T14:41:41.000Z,51.7
2019-03-06T14:42:53.000Z,52
2019-03-06T14:44:05.000Z,51.3
2019-03-06T14:45:18.797Z,51.7
2019-03-06T14:46:30.000Z,52.2
2019-03-06T14:47:42.000Z,52.1
2019-03-06T14:48:55.000Z,52.2
2019-03-06T14:50:07.000Z,51.8
2019-03-06T14:51:19.077Z,51.8
2019-03-06T14:52:31.000Z,52.3
2019-03-06T14:53:43.000Z,53
2019-03-06T14:54:56.362Z,53
2019-03-06T14:56:07.000Z,52.7
2019-03-06T14:57:20.746Z,53.2
2019-03-06T14:58:31.000Z,53.3
2019-03-06T14:59:45.000Z,52.7
2019-03-06T15:00:56.000Z,52.2
2019-03-06T15:02:08.000Z,52.8
2019-03-06T15:03:21.726Z,53.2
2019-03-06T15:04:33.920Z,53
2019-03-06T15:05:45.000Z,53.7
2019-03-06T15:06:57.000Z,53.6
2019-03-06T15:08:10.509Z,53.5
2019-03-06T15:09:21.000Z,53.5
2019-03-06T15:10:34.000Z,53.9
2019-03-06T15:11:46.000Z,53.2
2019-03-06T15:12:58.000Z,53.1
2019-03-06T15:14:11.484Z,53.1
2019-03-06T15:15:22.000Z,52.9
2019-03-06T15:16:34.000Z,52.4
2019-03-06T15:17:48.069Z,53.6
2019-03-06T15:18:59.000Z,53.5
2019-03-06T15:20:12.000Z,53.7
2019-03-06T15:21:24.654Z,52.7
2019-03-06T15:22:35.000Z,53.2
2019-03-06T15:23:48.000Z,53.6
2019-03-06T15:25:00.000Z,54
2019-03-06T15:26:13.430Z,55
2019-03-06T15:27:25.639Z,53.4
2019-03-06T15:28:37.824Z,54
2019-03-06T15:29:50.020Z,53.2
2019-03-06T15:31:02.219Z,53.4
2019-03-06T15:32:14.408Z,54.3
2019-03-06T15:33:26.600Z,53.6
2019-03-06T15:34:37.000Z,54.8
2019-03-06T15:35:49.000Z,54.6
2019-03-06T15:37:02.000Z,54.3
2019-03-06T15:38:14.000Z,54.7
2019-03-06T15:39:27.582Z,54.7
2019-03-06T15:40:39.079Z,54.9
2019-03-06T15:41:50.000Z,54
2019-03-06T15:43:04.167Z,56
2019-03-06T15:44:15.000Z,54.9
2019-03-06T15:45:27.000Z,54.9
2019-03-06T15:46:39.000Z,55.1
2019-03-06T15:47:51.000Z,55.2
2019-03-06T15:49:04.000Z,55.4
2019-03-06T15:50:16.000Z,55.6
2019-03-06T15:51:28.000Z,54.7
2019-03-06T15:52:40.000Z,55.6
2019-03-06T15:53:53.920Z,55.7
2019-03-06T15:55:05.000Z,55.2
2019-03-06T15:56:18.336Z,55.3
2019-03-06T15:57:29.000Z,55.6
2019-03-06T15:58:41.000Z,56.5
2019-03-06T15:59:53.000Z,55.3
2019-03-06T16:01:06.000Z,55
2019-03-06T16:02:18.000Z,54.8
2019-03-06T16:03:30.000Z,55.8
2019-03-06T16:04:42.000Z,56.1
2019-03-06T16:05:55.000Z,56.4
2019-03-06T16:07:07.000Z,55.7
2019-03-06T16:08:20.000Z,55.7
2019-03-06T16:09:31.000Z,55.5
2019-03-06T16:10:43.000Z,55.9
2019-03-06T16:11:55.000Z,56.3
2019-03-06T16:13:08.000Z,56.1
2019-03-06T16:14:20.000Z,56.1
2019-03-06T16:15:33.043Z,56.2
2019-03-06T16:16:44.000Z,56.5
2019-03-06T16:17:57.000Z,55.6
2019-03-06T16:19:08.000Z,56.2
2019-03-06T16:20:21.000Z,56.1
2019-03-06T16:21:33.000Z,56.1
2019-03-06T16:22:45.000Z,56.2
2019-03-06T16:23:58.080Z,56.2
2019-03-06T16:25:10.995Z,56.5